MYNNMWCR

Guest
Details From MYNN - Nassau Intl
To MWCR - Owen Roberts Intl
Flight Number -
Tags decoded
Created
Modified
Stats Distance 413 nm / 765 km
Max Altitude 0 ft / 0 m
Waypoints 9
Social Downloads 1
Likes 0
Share VATSIM

Download

Looking for another format? Having issues loading an existing format? Contact us
Advertisement - Login to hide

Notes

Requested: MYNN ZQA JAYEE G437 IMELA UG437 UCA UB767 KANEX MWCR

Route

MYNN ZQA JAYEE G437 IMELA UCA IBSEN UB767 KANEX MWCR

ID Type Via Altitude Latitude Longitude Leg Dist Tot Dist Heading (true) Name
O MYNN APT - 0 ft / 0 m 25.03860˚ -77.46662˚ - 0 nm - Nassau Intl
ZQA NDB - 0 ft / 0 m 25.04042˚ -77.47050˚ 0 nm 0 nm 297° / 297° NASSAU NDB
JAYEE FIX - 0 ft / 0 m 24.43216˚ -77.72351˚ 39 nm 39 nm 201° / 201° -
DINAH FIX G437 (AWY-LO) 0 ft / 0 m 23.95000˚ -77.94639˚ 31 nm 70 nm 203° / 203° -
IMELA FIX G437 (AWY-LO) 0 ft / 0 m 23.42056˚ -78.18417˚ 34 nm 105 nm 202° / 202° -
UCA NDB - 0 ft / 0 m 21.98945˚ -78.87191˚ 94 nm 199 nm 204° / 204° CIEGO DE AVILA NDB
IBSEN FIX - 0 ft / 0 m 20.51556˚ -80.23806˚ 116 nm 316 nm 221° / 221° -
KANEX FIX UB767 (AWY-HI) 0 ft / 0 m 20.00000˚ -80.71778˚ 41 nm 357 nm 221° / 221° -
O MWCR APT - 0 ft / 0 m 19.29278˚ -81.35776˚ 55 nm 412 nm 221° / 220° Owen Roberts Intl

Altitude Profile

Advertisement - Login to hide

Weather


0- 5 10 15 20 25 30 35+ Temperature / ° C

Clouds and Precipitation
Forecast for 2018-05-27 18:00 UTC. Updated 5 hours ago

Ground ~20,000 ft ~40,000 ft Winds

MYNN

Details ICAO MYNN (NAS)
Name Nassau Intl
Region Bahamas
Timezone America/Nassau (UTC-4.0)
Stats Elevation 16 ft / 5 m (AMSL)
Location 25.038596° -77.466621°
Runways 2
Magnetic Variation 8.258° W

METAR

MYNN 272200Z 14016KT 9999 SCT016 BKN040 OVC080 27/25 A2989 RMK PK WND 22KT

Decode

TAF

TAF MYNN 271750Z 2718/2818 16017KT 6000 RA BKN012CB BKN030 OVC120 PROB40 TEMPO 2720/2802 15016G26KT 3200 TSRA BKN010CB BKN030 OVC140

Decode

Departure Runways

ID Width Length Bearing (true) Bearing (mag) Surface Threshold Offset Overrun Length
09 151 ft / 46 m 8,311 ft / 2,533 m 89.62° 97.88° Asphalt 0 ft / 0 m 0 ft / 0 m
14 151 ft / 46 m 11,364 ft / 3,464 m 134.83° 143.09° Asphalt 226 ft / 69 m 0 ft / 0 m
27 151 ft / 46 m 8,311 ft / 2,533 m 269.64° 277.90° Asphalt 0 ft / 0 m 0 ft / 0 m
32 151 ft / 46 m 11,364 ft / 3,464 m 314.84° 323.10° Asphalt 0 ft / 0 m 0 ft / 0 m

MWCR

Details ICAO MWCR (GCM)
Name Owen Roberts Intl
Region Cayman Islands
Timezone America/Cayman (UTC-5.0)
Stats Elevation 7 ft / 2 m (AMSL)
Location 19.292776° -81.357760°
Runways 1
Magnetic Variation 5.045° W

METAR

MWCR 272100Z 16014KT 9999 FEW016 BKN045 29/26 Q1009

Decode

TAF

Not found

Destination Runways

ID Width Length Bearing (true) Bearing (mag) Surface Threshold Offset Overrun Length
08 148 ft / 45 m 7,016 ft / 2,139 m 75.84° 80.88° Asphalt 0 ft / 0 m 0 ft / 0 m
26 148 ft / 45 m 7,016 ft / 2,139 m 255.85° 260.89° Asphalt 400 ft / 122 m 0 ft / 0 m

Popular Alternatives